Weather at Akjoujt Airport

Public forecast

Using degrees Celsius for public forecast. Weather courtesy of forecast.io.

Closest aviation weather report (METAR) to Akjoujt Airport

Report is more than 6 hours old.

Closest report is Atar International Airport, 88.6 nm (164.0 km) ENE.

2022/11/14 15:00 (retrieved 2 years ago)

GQPA 141500Z 10010KT CAVOK 34/03 Q1014

Closest aviation forecast (TAF) to Akjoujt Airport

Forecast is more than 12 hours old.

Closest forecast is Nouakchott–Oumtounsy International Airport, 124.2 nm (230.0 km) SW.

2023/02/22 18:00 (retrieved 1 year ago)

TAF GQNO 221700Z 2218/2324 35014KT 8000 NSC